Time;durP1;ratioP1;P1;durP2;ratioP2;P2;SDS_P1;SDS_P2;PMS_P1;PMS_P2;Temp;Humidity;BMP_temperature;BMP_pressure;BME280_temperature;BME280_humidity;BME280_pressure;Samples;Min_cycle;Max_cycle;Signal;HPM_P1;HPM_P2
2022/10/24 00:01:21;;;;;;;8.05;2.97;;;;;;;23.85;43.63;100150.66;5014241;28;20391;-56
2022/10/24 00:03:49;;;;;;;11.93;3.10;;;;;;;23.81;43.81;100151.53;5013868;28;20060;-56
2022/10/24 00:06:19;;;;;;;11.10;2.90;;;;;;;23.81;43.90;100155.03;4996776;28;20033;-57
2022/10/24 00:08:47;;;;;;;9.35;2.90;;;;;;;23.70;44.22;100158.50;5014335;28;20033;-57
2022/10/24 00:11:20;;;;;;;6.57;1.83;;;;;;;23.67;44.01;100156.75;5014103;28;20053;-56
2022/10/24 00:13:49;;;;;;;6.15;2.30;;;;;;;23.73;43.81;100162.00;5013862;28;20036;-57
2022/10/24 00:16:18;;;;;;;10.38;2.88;;;;;;;23.71;43.94;100163.75;5013944;28;20058;-57
2022/10/24 00:18:47;;;;;;;14.15;3.65;;;;;;;23.75;44.03;100173.34;5013703;28;20040;-55
2022/10/24 00:21:16;;;;;;;12.00;3.30;;;;;;;23.70;43.82;100161.13;5013188;28;20053;-56
2022/10/24 00:23:44;;;;;;;7.72;2.65;;;;;;;23.70;43.84;100166.38;5013729;28;20033;-56
2022/10/24 00:26:13;;;;;;;7.82;2.30;;;;;;;23.61;44.27;100178.56;5013576;28;20021;-56
2022/10/24 00:28:41;;;;;;;10.32;2.53;;;;;;;23.64;43.95;100181.19;4996023;28;20377;-50
2022/10/24 00:31:15;;;;;;;12.88;2.63;;;;;;;23.79;43.82;100188.22;4995584;28;20025;-56
2022/10/24 00:33:44;;;;;;;11.05;3.60;;;;;;;23.65;44.00;100182.09;5013508;28;20034;-57
2022/10/24 00:36:16;;;;;;;7.05;2.33;;;;;;;23.69;43.81;100181.19;5013726;28;20475;-57
2022/10/24 00:38:44;;;;;;;10.23;2.88;;;;;;;23.70;43.87;100179.47;5013435;28;20398;-57
2022/10/24 00:41:21;;;;;;;8.50;2.33;;;;;;;23.70;44.10;100179.47;5013307;28;20065;-56
2022/10/24 00:43:50;;;;;;;8.65;2.53;;;;;;;23.72;43.97;100180.34;5013629;28;20079;-57
2022/10/24 00:46:19;;;;;;;8.65;2.72;;;;;;;23.67;44.25;100175.06;5013349;28;20042;-57
2022/10/24 00:48:51;;;;;;;7.25;2.10;;;;;;;23.67;43.90;100182.94;5013449;28;20060;-56
2022/10/24 00:51:23;;;;;;;8.80;2.08;;;;;;;23.67;43.87;100182.94;5012918;28;20037;-56
2022/10/24 00:53:57;;;;;;;8.30;2.47;;;;;;;23.73;44.18;100180.34;4996549;28;20025;-53
2022/10/24 00:56:28;;;;;;;7.15;2.28;;;;;;;23.73;44.09;100182.94;5013608;28;20021;-57
2022/10/24 00:58:58;;;;;;;6.45;2.15;;;;;;;23.75;43.89;100183.84;4995869;28;20095;-56
2022/10/24 01:01:27;;;;;;;9.10;2.58;;;;;;;23.63;44.43;100192.53;4995577;28;20029;-57
2022/10/24 01:03:55;;;;;;;10.25;2.60;;;;;;;23.75;44.18;100186.44;4995561;28;20042;-54
2022/10/24 01:07:02;;;;;;;9.35;2.40;;;;;;;23.69;44.32;100203.91;4995729;28;20032;-53
2022/10/24 01:09:52;;;;;;;7.53;2.15;;;;;;;23.55;44.09;100183.81;5011141;28;20399;-57
2022/10/24 01:12:43;;;;;;;8.35;3.17;;;;;;;23.66;43.91;100203.03;5005992;28;20371;-58
2022/10/24 01:15:14;;;;;;;9.38;2.28;;;;;;;23.78;43.84;100210.03;4996297;28;20116;-57
2022/10/24 01:17:49;;;;;;;6.40;1.95;;;;;;;23.63;43.79;100202.16;4995622;28;20030;-56
2022/10/24 01:20:43;;;;;;;6.97;2.42;;;;;;;23.63;44.32;100210.00;5012751;28;20033;-54
2022/10/24 01:23:45;;;;;;;8.32;2.10;;;;;;;23.69;44.14;100210.00;5004208;28;20034;-56
2022/10/24 01:26:33;;;;;;;6.60;2.03;;;;;;;23.63;44.30;100215.25;5012718;28;20110;-57
2022/10/24 01:29:27;;;;;;;6.55;2.10;;;;;;;23.60;44.04;100210.00;5003700;28;20061;-56
2022/10/24 01:32:03;;;;;;;7.50;2.33;;;;;;;23.63;44.05;100216.09;4995360;28;20116;-55
2022/10/24 01:34:35;;;;;;;7.43;2.10;;;;;;;23.61;44.16;100215.22;4995705;28;20049;-57
2022/10/24 01:37:08;;;;;;;4.43;1.77;;;;;;;23.71;44.04;100218.72;4995388;28;20022;-55
2022/10/24 01:39:43;;;;;;;6.97;2.40;;;;;;;23.67;43.85;100223.09;5012728;28;20116;-55
2022/10/24 01:42:16;;;;;;;7.78;2.92;;;;;;;23.65;43.84;100214.34;5014084;28;20106;-56
2022/10/24 01:44:48;;;;;;;6.90;2.00;;;;;;;23.68;43.99;100223.97;4999692;28;20159;-56
2022/10/24 01:47:30;;;;;;;8.73;2.00;;;;;;;23.60;44.08;100220.47;4998987;28;20533;-57
2022/10/24 01:50:02;;;;;;;6.88;2.28;;;;;;;23.60;44.07;100205.63;4999229;28;20109;-56
2022/10/24 01:52:33;;;;;;;6.60;2.10;;;;;;;23.60;44.42;100215.22;4998668;28;20104;-55
2022/10/24 01:55:03;;;;;;;8.50;2.25;;;;;;;23.62;44.23;100208.25;4999716;28;20022;-56
2022/10/24 01:57:32;;;;;;;7.97;2.28;;;;;;;23.60;44.01;100217.84;5016574;28;20026;-57
2022/10/24 02:00:01;;;;;;;7.82;2.63;;;;;;;23.56;44.01;100205.59;5016181;28;20026;-56
2022/10/24 02:02:35;;;;;;;7.15;2.13;;;;;;;23.53;43.89;100198.63;5016957;28;20033;-56
2022/10/24 02:05:16;;;;;;;7.63;2.10;;;;;;;23.61;44.11;100216.97;4998882;28;20398;-57
2022/10/24 02:07:47;;;;;;;7.57;1.83;;;;;;;23.62;44.13;100208.25;5016224;28;20034;-54
2022/10/24 02:10:22;;;;;;;5.43;1.60;;;;;;;23.62;44.36;100219.59;4998879;28;20030;-54
2022/10/24 02:12:58;;;;;;;6.35;1.92;;;;;;;23.70;43.79;100216.13;5016336;28;20021;-56
2022/10/24 02:15:50;;;;;;;6.47;1.80;;;;;;;23.70;43.89;100209.13;4999397;28;20029;-55
2022/10/24 02:18:19;;;;;;;7.43;1.83;;;;;;;23.71;43.88;100213.50;5015372;28;20479;-57
2022/10/24 02:20:59;;;;;;;5.20;1.67;;;;;;;23.66;43.90;100212.63;5015953;28;20117;-56
2022/10/24 02:23:31;;;;;;;6.68;2.05;;;;;;;23.64;44.24;100209.13;4998961;28;20093;-57
2022/10/24 02:26:01;;;;;;;6.80;1.88;;;;;;;23.60;44.14;100218.69;4998208;28;20371;-57
2022/10/24 02:28:34;;;;;;;11.32;2.58;;;;;;;23.59;43.98;100213.47;5015478;28;20029;-56
2022/10/24 02:31:16;;;;;;;5.75;1.88;;;;;;;23.63;44.17;100215.25;4998232;28;20030;-57
2022/10/24 02:33:46;;;;;;;7.18;2.58;;;;;;;23.64;44.23;100214.38;5015555;28;20437;-48
2022/10/24 02:36:17;;;;;;;6.63;2.28;;;;;;;23.67;44.14;100219.59;4998625;28;20104;-57
2022/10/24 02:38:46;;;;;;;7.22;2.28;;;;;;;23.63;44.11;100223.09;4982492;28;20101;-57
2022/10/24 02:41:22;;;;;;;6.25;2.13;;;;;;;23.68;44.20;100229.19;4998529;28;20069;-56
2022/10/24 02:43:52;;;;;;;9.35;2.10;;;;;;;23.69;43.75;100217.84;5015299;28;20033;-56
2022/10/24 02:46:21;;;;;;;6.57;2.42;;;;;;;23.71;44.03;100223.97;4998432;28;20548;-56
2022/10/24 02:48:55;;;;;;;7.40;2.20;;;;;;;23.68;44.31;100229.19;5015143;28;20028;-56
2022/10/24 02:51:27;;;;;;;6.40;1.70;;;;;;;23.61;44.04;100225.69;4998279;28;20033;-54
2022/10/24 02:53:56;;;;;;;7.80;2.40;;;;;;;23.56;44.27;100229.16;4996492;28;20386;-57
2022/10/24 02:56:25;;;;;;;8.45;2.15;;;;;;;23.59;44.13;100229.19;4997643;28;20525;-55
2022/10/24 02:58:53;;;;;;;6.03;1.70;;;;;;;23.62;44.03;100223.97;5015376;28;20037;-57
2022/10/24 03:01:21;;;;;;;6.82;1.50;;;;;;;23.59;44.36;100226.56;5015249;28;20068;-54
2022/10/24 03:03:50;;;;;;;6.00;1.90;;;;;;;23.61;44.24;100222.22;5015163;28;20380;-57
2022/10/24 03:06:19;;;;;;;4.43;1.55;;;;;;;23.69;44.16;100230.94;5015525;28;20087;-57
2022/10/24 03:08:47;;;;;;;5.57;2.47;;;;;;;23.67;44.14;100230.94;5015113;28;20029;-57
2022/10/24 03:11:16;;;;;;;6.45;2.00;;;;;;;23.57;44.43;100228.31;5015207;28;20027;-57
2022/10/24 03:13:44;;;;;;;8.13;1.75;;;;;;;23.59;44.03;100235.28;5015255;28;20025;-57
2022/10/24 03:16:12;;;;;;;9.82;2.95;;;;;;;23.63;44.11;100234.44;4997940;28;20033;-57
2022/10/24 03:18:41;;;;;;;7.50;1.98;;;;;;;23.61;44.36;100235.31;5015007;28;20385;-56
2022/10/24 03:21:09;;;;;;;9.05;2.53;;;;;;;23.56;44.25;100237.91;5014959;28;20475;-57
2022/10/24 03:23:38;;;;;;;6.03;2.03;;;;;;;23.56;44.51;100234.41;5015293;28;20467;-56
2022/10/24 03:26:07;;;;;;;9.50;2.53;;;;;;;23.63;44.34;100244.03;5014496;28;20034;-57
2022/10/24 03:28:35;;;;;;;6.25;1.80;;;;;;;23.61;44.12;100243.16;5014670;28;20028;-52
2022/10/24 03:31:04;;;;;;;12.73;3.10;;;;;;;23.62;44.01;100243.16;4997181;28;20484;-55
2022/10/24 03:33:33;;;;;;;7.22;2.13;;;;;;;23.57;44.46;100236.16;5014488;28;20030;-55
2022/10/24 03:36:02;;;;;;;8.98;2.72;;;;;;;23.52;44.13;100246.63;5014704;28;20554;-56
2022/10/24 03:38:30;;;;;;;5.40;1.77;;;;;;;23.61;44.43;100243.16;5014715;28;20034;-56
2022/10/24 03:40:59;;;;;;;8.82;2.35;;;;;;;23.55;44.34;100230.03;5014581;28;20390;-56
2022/10/24 03:43:28;;;;;;;6.97;2.53;;;;;;;23.56;44.09;100244.88;5014701;28;20144;-55
2022/10/24 03:45:56;;;;;;;9.50;2.42;;;;;;;23.57;44.46;100257.09;5014099;28;20065;-56
2022/10/24 03:48:25;;;;;;;11.68;2.78;;;;;;;23.58;44.48;100251.84;5014266;28;20069;-55
2022/10/24 03:50:53;;;;;;;7.65;2.28;;;;;;;23.56;44.01;100251.00;5013985;28;20022;-57
2022/10/24 03:53:22;;;;;;;10.25;3.17;;;;;;;23.59;44.37;100256.22;4996827;28;20033;-53
2022/10/24 03:55:50;;;;;;;10.05;2.72;;;;;;;23.43;44.35;100249.19;5013678;28;20481;-55
2022/10/24 03:58:19;;;;;;;7.45;2.25;;;;;;;23.51;44.42;100266.66;5013889;28;20034;-56
2022/10/24 04:00:48;;;;;;;8.90;2.33;;;;;;;23.54;44.26;100262.31;5014395;28;20042;-56
2022/10/24 04:03:16;;;;;;;7.90;1.90;;;;;;;23.51;44.44;100266.66;5014009;28;20030;-54
2022/10/24 04:05:44;;;;;;;7.75;2.38;;;;;;;23.56;44.16;100258.84;5013850;28;20459;-56
2022/10/24 04:08:13;;;;;;;6.18;2.13;;;;;;;23.58;44.40;100271.94;5013934;28;20420;-55
2022/10/24 04:10:41;;;;;;;6.93;2.30;;;;;;;23.61;44.34;100266.72;5014173;28;20447;-56
2022/10/24 04:13:09;;;;;;;7.85;2.28;;;;;;;23.56;44.10;100271.94;5013891;28;20026;-57
2022/10/24 04:15:37;;;;;;;9.40;2.30;;;;;;;23.50;44.32;100270.16;4996525;28;20030;-56
2022/10/24 04:18:07;;;;;;;10.82;2.45;;;;;;;23.47;44.20;100275.41;5014039;28;20022;-56
2022/10/24 04:20:36;;;;;;;7.40;2.33;;;;;;;23.56;44.47;100268.44;5013782;28;20026;-56
2022/10/24 04:23:05;;;;;;;9.52;2.63;;;;;;;23.57;44.06;100262.34;5013444;28;20033;-56
2022/10/24 04:25:33;;;;;;;10.27;2.60;;;;;;;23.56;44.10;100271.94;5013774;28;20029;-56
2022/10/24 04:28:02;;;;;;;7.28;2.40;;;;;;;23.56;44.41;100273.69;5013882;28;20026;-57
2022/10/24 04:30:30;;;;;;;10.98;2.97;;;;;;;23.51;44.62;100271.03;4996459;28;20097;-56
2022/10/24 04:32:59;;;;;;;8.35;2.20;;;;;;;23.54;44.04;100278.91;5013392;28;20022;-57
2022/10/24 04:35:27;;;;;;;10.25;2.55;;;;;;;23.59;44.07;100277.16;5013595;28;20443;-56
2022/10/24 04:37:56;;;;;;;8.50;2.10;;;;;;;23.62;44.30;100266.72;5013803;28;20053;-56
2022/10/24 04:40:24;;;;;;;8.27;2.70;;;;;;;23.59;44.24;100276.31;5013260;28;20367;-56
2022/10/24 04:42:53;;;;;;;9.32;2.95;;;;;;;23.58;44.13;100269.31;5013486;28;20103;-56
2022/10/24 04:45:21;;;;;;;9.63;2.22;;;;;;;23.52;44.48;100270.19;4995892;28;20049;-55
2022/10/24 04:47:50;;;;;;;10.93;2.97;;;;;;;23.51;44.43;100268.44;4963651;28;20060;-57
2022/10/24 04:50:18;;;;;;;10.13;2.83;;;;;;;23.55;44.52;100264.97;5013659;28;20165;-57
2022/10/24 04:52:47;;;;;;;7.07;2.40;;;;;;;23.55;44.14;100262.34;5013108;28;20379;-56
2022/10/24 04:55:16;;;;;;;10.57;2.65;;;;;;;23.57;44.47;100259.72;5013277;28;20582;-56
2022/10/24 04:57:44;;;;;;;9.35;2.75;;;;;;;23.61;44.02;100258.88;5013271;28;20116;-58
2022/10/24 05:00:13;;;;;;;8.00;2.50;;;;;;;23.68;44.38;100271.09;5013000;28;20124;-57
2022/10/24 05:02:41;;;;;;;10.15;2.70;;;;;;;23.67;43.94;100265.00;5013086;28;20026;-57
2022/10/24 05:05:10;;;;;;;10.40;3.15;;;;;;;23.56;44.55;100271.06;4995770;28;20121;-57
2022/10/24 05:07:40;;;;;;;8.07;2.53;;;;;;;23.60;44.08;100281.53;5013341;28;20025;-57
2022/10/24 05:10:09;;;;;;;9.23;2.83;;;;;;;23.57;44.25;100270.19;5013114;28;20104;-56
2022/10/24 05:12:38;;;;;;;12.18;3.08;;;;;;;23.42;44.52;100278.84;5013270;28;20032;-57
2022/10/24 05:15:07;;;;;;;11.18;3.10;;;;;;;23.46;44.85;100284.13;5012982;28;20033;-57
2022/10/24 05:17:36;;;;;;;9.55;2.65;;;;;;;23.49;44.73;100281.53;5012747;28;20030;-54
2022/10/24 05:20:06;;;;;;;8.35;2.78;;;;;;;23.58;44.53;100296.38;5012654;28;20038;-57
2022/10/24 05:22:34;;;;;;;9.10;2.78;;;;;;;23.53;44.64;100292.88;5012620;28;20034;-57
2022/10/24 05:25:03;;;;;;;9.75;2.70;;;;;;;23.60;44.22;100276.31;5012861;28;20037;-44
2022/10/24 05:27:32;;;;;;;9.20;2.80;;;;;;;23.58;44.37;100298.13;5013161;28;20022;-56
2022/10/24 05:30:00;;;;;;;8.63;2.75;;;;;;;23.49;44.65;100286.75;4995462;28;20108;-55
2022/10/24 05:32:29;;;;;;;9.40;2.67;;;;;;;23.60;44.20;100299.00;5012984;28;20105;-55
2022/10/24 05:34:57;;;;;;;8.95;2.95;;;;;;;23.69;43.92;100304.28;5013045;28;20033;-52
2022/10/24 05:37:26;;;;;;;10.27;2.97;;;;;;;23.71;44.03;100306.91;5013019;28;20045;-56
2022/10/24 05:39:54;;;;;;;9.98;2.80;;;;;;;23.62;44.19;100305.13;5012236;28;20513;-54
2022/10/24 05:42:23;;;;;;;8.55;2.67;;;;;;;23.62;44.52;100307.75;5012837;28;20041;-57
2022/10/24 05:44:52;;;;;;;9.90;2.47;;;;;;;23.52;44.61;100312.06;5012778;28;20034;-57
2022/10/24 05:47:19;;;;;;;11.80;3.05;;;;;;;23.55;44.67;100317.31;5013041;28;20045;-56
2022/10/24 05:49:48;;;;;;;8.52;2.42;;;;;;;23.53;44.53;100313.81;5012773;28;20022;-57
2022/10/24 05:52:16;;;;;;;11.73;2.67;;;;;;;23.56;44.33;100313.84;5012389;28;20511;-56
2022/10/24 05:54:44;;;;;;;12.05;3.22;;;;;;;23.62;44.16;100320.84;5012941;28;20034;-50
2022/10/24 05:57:13;;;;;;;11.60;2.67;;;;;;;23.55;44.25;100319.03;5012727;28;20125;-57
2022/10/24 05:59:42;;;;;;;9.43;2.45;;;;;;;23.56;44.39;100326.03;5012624;28;20034;-56
2022/10/24 06:02:17;;;;;;;10.13;2.90;;;;;;;23.61;44.14;100325.19;5012600;28;20034;-56
2022/10/24 06:04:46;;;;;;;7.00;2.40;;;;;;;23.65;44.32;100336.56;5012623;28;20506;-56
2022/10/24 06:07:15;;;;;;;7.70;2.42;;;;;;;23.60;44.14;100330.44;5012730;28;20105;-56
2022/10/24 06:09:43;;;;;;;9.15;2.50;;;;;;;23.62;44.28;100334.78;5012424;28;20390;-56
2022/10/24 06:12:12;;;;;;;7.07;2.45;;;;;;;23.60;44.13;100343.53;4994785;28;20084;-56
2022/10/24 06:14:41;;;;;;;9.55;2.30;;;;;;;23.66;44.36;100344.41;5012313;28;20026;-54
2022/10/24 06:17:10;;;;;;;9.68;2.88;;;;;;;23.66;44.13;100348.78;4995060;28;20113;-56
2022/10/24 06:19:39;;;;;;;10.90;2.75;;;;;;;23.65;44.31;100363.63;5012447;28;20038;-56
2022/10/24 06:22:09;;;;;;;10.30;2.97;;;;;;;23.64;43.96;100358.38;5012321;28;20049;-57
2022/10/24 06:24:38;;;;;;;9.55;3.17;;;;;;;23.63;44.13;100365.34;5012296;28;20022;-57
2022/10/24 06:27:07;;;;;;;10.05;2.90;;;;;;;23.62;44.44;100363.59;5012205;28;20025;-56
2022/10/24 06:29:36;;;;;;;8.52;2.25;;;;;;;23.64;44.08;100363.63;5015142;28;20088;-57
2022/10/24 06:32:04;;;;;;;8.75;2.83;;;;;;;23.71;44.09;100373.25;5015957;28;20434;-53
2022/10/24 06:34:33;;;;;;;6.40;2.35;;;;;;;23.63;43.91;100377.56;5015738;28;20092;-56
2022/10/24 06:37:02;;;;;;;6.28;1.65;;;;;;;23.59;44.23;100375.81;5015694;28;20037;-57
2022/10/24 06:39:30;;;;;;;8.70;2.53;;;;;;;23.75;43.73;100387.22;5014979;28;20040;-56
2022/10/24 06:42:00;;;;;;;7.97;2.83;;;;;;;23.60;43.91;100373.19;4998224;28;20029;-53
2022/10/24 06:44:29;;;;;;;9.15;2.88;;;;;;;23.71;44.12;100382.84;5016000;28;20104;-57
2022/10/24 06:46:58;;;;;;;7.30;2.65;;;;;;;23.66;43.78;100391.56;5015489;28;20026;-56
2022/10/24 06:49:26;;;;;;;8.20;2.28;;;;;;;23.62;43.95;100400.25;5016103;28;20462;-57
2022/10/24 06:51:55;;;;;;;8.65;2.78;;;;;;;23.64;43.99;100406.38;5015504;28;20038;-57
2022/10/24 06:54:24;;;;;;;8.13;2.15;;;;;;;23.74;43.65;100403.81;5014950;28;20135;-57
2022/10/24 06:56:52;;;;;;;8.18;2.67;;;;;;;23.70;43.84;100405.53;5015536;28;20022;-57
2022/10/24 06:59:21;;;;;;;8.05;2.33;;;;;;;23.67;44.04;100403.78;5015437;28;20036;-57
2022/10/24 07:01:49;;;;;;;5.57;2.20;;;;;;;23.60;44.45;100408.97;5015227;28;20030;-56
2022/10/24 07:04:18;;;;;;;6.07;1.80;;;;;;;23.60;44.03;100415.06;5015173;28;20059;-57
2022/10/24 07:06:46;;;;;;;7.85;2.72;;;;;;;23.65;44.15;100422.97;5015144;28;20030;-55
2022/10/24 07:09:16;;;;;;;6.53;1.98;;;;;;;23.64;44.22;100418.59;5015068;28;20397;-57
2022/10/24 07:11:44;;;;;;;7.75;2.42;;;;;;;23.57;44.04;100428.19;5015134;28;20038;-57
2022/10/24 07:14:13;;;;;;;8.23;2.28;;;;;;;23.61;44.14;100431.69;5014894;28;20024;-57
2022/10/24 07:16:42;;;;;;;8.68;2.40;;;;;;;23.71;43.94;100433.47;5014792;28;20072;-57
2022/10/24 07:19:11;;;;;;;8.38;2.50;;;;;;;23.73;43.79;100444.84;5015104;28;20083;-57
2022/10/24 07:21:40;;;;;;;10.05;2.47;;;;;;;23.63;44.24;100445.66;5015013;28;20030;-57
2022/10/24 07:24:10;;;;;;;7.13;2.17;;;;;;;23.70;44.13;100454.44;5015252;28;20030;-57
2022/10/24 07:26:39;;;;;;;7.07;1.85;;;;;;;23.62;44.28;100457.00;4997355;28;20041;-57
2022/10/24 07:29:08;;;;;;;7.63;2.40;;;;;;;23.71;43.96;100461.41;5014895;28;20026;-57
2022/10/24 07:31:37;;;;;;;7.68;1.75;;;;;;;23.71;43.62;100469.28;5014954;28;20116;-55
2022/10/24 07:34:07;;;;;;;7.43;2.13;;;;;;;23.73;43.96;100470.16;5014488;28;20030;-56
2022/10/24 07:36:36;;;;;;;6.85;2.13;;;;;;;23.65;44.05;100480.59;5015073;28;20026;-56
2022/10/24 07:39:04;;;;;;;8.40;2.40;;;;;;;23.64;44.27;100473.59;5014181;28;20040;-54
2022/10/24 07:41:36;;;;;;;8.77;2.22;;;;;;;23.67;43.84;100481.44;5014065;28;20026;-57
2022/10/24 07:44:04;;;;;;;5.03;1.73;;;;;;;23.63;44.01;100482.31;5014874;28;20022;-58
2022/10/24 07:46:33;;;;;;;8.77;1.92;;;;;;;23.74;43.69;100480.63;5014557;28;20105;-56
2022/10/24 07:49:01;;;;;;;6.35;1.98;;;;;;;23.69;44.09;100484.97;5014712;28;20018;-57
2022/10/24 07:51:30;;;;;;;7.80;2.22;;;;;;;23.71;43.83;100498.94;5014361;28;20072;-57
2022/10/24 07:53:59;;;;;;;7.40;2.38;;;;;;;23.73;43.75;100498.97;5014206;28;20038;-54
2022/10/24 07:56:28;;;;;;;10.32;2.35;;;;;;;23.72;44.15;100518.16;5014348;28;20034;-57
2022/10/24 07:58:57;;;;;;;8.20;1.98;;;;;;;23.67;44.23;100518.09;5014343;28;20117;-52
2022/10/24 08:01:26;;;;;;;5.65;1.90;;;;;;;23.69;44.08;100521.63;4996502;28;20091;-56
2022/10/24 08:03:56;;;;;;;7.38;1.98;;;;;;;23.63;44.35;100524.22;5013893;28;20042;-55
2022/10/24 08:06:31;;;;;;;6.85;2.22;;;;;;;23.66;44.01;100526.88;4996610;28;20497;-56
2022/10/24 08:08:59;;;;;;;8.65;2.67;;;;;;;23.73;44.01;100533.03;5014599;28;20026;-55
2022/10/24 08:11:28;;;;;;;6.78;1.80;;;;;;;23.71;44.34;100535.59;5013855;28;20422;-56
2022/10/24 08:13:57;;;;;;;6.63;2.08;;;;;;;23.61;44.39;100521.56;5014036;28;20454;-53
2022/10/24 08:16:26;;;;;;;11.13;2.92;;;;;;;23.68;43.98;100532.97;5013925;28;20482;-56
2022/10/24 08:18:55;;;;;;;5.68;1.83;;;;;;;23.71;44.24;100532.13;5013476;28;20040;-56
2022/10/24 08:21:25;;;;;;;7.47;2.30;;;;;;;23.70;44.45;100540.84;5013644;28;20026;-57
2022/10/24 08:23:54;;;;;;;6.43;1.90;;;;;;;23.75;44.13;100541.72;4996276;28;20022;-54
2022/10/24 08:26:24;;;;;;;8.32;2.30;;;;;;;23.67;44.50;100542.56;5013691;28;20356;-57
2022/10/24 08:28:54;;;;;;;7.55;2.00;;;;;;;23.76;44.16;100552.25;4995731;28;20478;-57
2022/10/24 08:31:24;;;;;;;6.00;2.28;;;;;;;23.77;44.71;100556.63;4996116;28;20030;-57
2022/10/24 08:33:54;;;;;;;5.65;2.08;;;;;;;23.74;44.35;100553.97;4996045;28;20386;-56
2022/10/24 08:36:28;;;;;;;7.50;1.80;;;;;;;23.76;44.61;100554.84;4996240;28;20069;-57
2022/10/24 08:38:57;;;;;;;7.63;2.50;;;;;;;23.76;44.56;100557.47;4996430;28;20033;-53
2022/10/24 08:41:31;;;;;;;8.32;2.08;;;;;;;23.79;44.71;100559.22;5013816;28;20526;-58
2022/10/24 08:44:03;;;;;;;11.32;2.08;;;;;;;23.82;44.47;100565.41;4996265;28;20030;-56
2022/10/24 08:46:43;;;;;;;8.80;2.70;;;;;;;23.84;44.47;100565.38;5013437;28;20500;-57
2022/10/24 08:49:34;;;;;;;8.40;2.38;;;;;;;23.81;44.75;100563.63;4996694;28;20041;-57
2022/10/24 08:52:16;;;;;;;6.78;2.05;;;;;;;23.83;44.51;100561.00;4986207;28;20044;-56
2022/10/24 08:54:46;;;;;;;7.32;2.00;;;;;;;23.88;44.37;100577.66;5013622;28;20033;-55
2022/10/24 08:57:22;;;;;;;7.65;2.33;;;;;;;23.86;44.87;100582.00;5013539;28;20026;-57
2022/10/24 08:59:53;;;;;;;9.75;2.25;;;;;;;23.89;44.55;100582.03;5013442;28;20025;-58
2022/10/24 09:02:28;;;;;;;6.97;1.80;;;;;;;23.95;44.70;100581.19;4996123;28;20108;-58
2022/10/24 09:05:00;;;;;;;7.38;2.10;;;;;;;23.94;44.67;100582.06;5013185;28;20042;-56
2022/10/24 09:07:28;;;;;;;11.93;2.60;;;;;;;24.00;44.50;100594.34;4995882;28;20029;-58
2022/10/24 09:10:17;;;;;;;8.27;2.53;;;;;;;23.98;44.56;100586.50;4995572;28;20034;-55
2022/10/24 09:12:45;;;;;;;7.20;2.33;;;;;;;23.99;44.44;100593.50;4995900;28;20413;-57
2022/10/24 09:15:18;;;;;;;8.77;2.35;;;;;;;24.03;44.49;100599.63;5012545;28;20399;-58
2022/10/24 09:17:47;;;;;;;8.27;2.60;;;;;;;24.05;44.60;100590.03;5012476;28;20446;-57
2022/10/24 09:20:34;;;;;;;6.63;1.88;;;;;;;24.05;44.87;100587.41;4995655;28;20030;-58
2022/10/24 09:23:05;;;;;;;6.78;1.88;;;;;;;24.04;44.42;100586.50;5013050;28;20442;-58
2022/10/24 09:25:35;;;;;;;9.90;2.45;;;;;;;24.03;44.79;100603.09;5013266;28;20113;-57
2022/10/24 09:28:05;;;;;;;9.02;2.17;;;;;;;24.06;44.33;100579.53;4995456;28;20030;-58
2022/10/24 09:30:35;;;;;;;7.75;1.90;;;;;;;24.08;44.87;100590.91;5012741;28;20033;-57
2022/10/24 09:33:27;;;;;;;8.98;2.20;;;;;;;24.06;44.65;100595.25;4996069;28;20030;-58
2022/10/24 09:35:58;;;;;;;8.98;2.80;;;;;;;24.06;44.90;100597.88;5012884;28;20128;-57
2022/10/24 09:38:32;;;;;;;8.27;2.05;;;;;;;24.07;44.47;100598.78;5012437;28;20022;-56
2022/10/24 09:41:21;;;;;;;5.60;1.80;;;;;;;24.06;44.64;100603.13;5012971;28;20034;-57
2022/10/24 09:43:56;;;;;;;7.10;2.28;;;;;;;24.03;44.92;100610.97;5003527;28;20346;-51
2022/10/24 09:46:27;;;;;;;6.75;2.05;;;;;;;24.04;44.98;100617.97;5013314;28;20033;-55
2022/10/24 09:48:58;;;;;;;6.45;1.77;;;;;;;24.02;44.60;100619.69;5012525;28;20056;-54
2022/10/24 09:51:34;;;;;;;8.65;2.20;;;;;;;24.05;44.91;100632.81;5013073;28;20459;-56
2022/10/24 09:54:22;;;;;;;7.85;2.25;;;;;;;24.03;45.02;100626.69;4995361;28;20030;-57
2022/10/24 09:56:55;;;;;;;10.27;2.75;;;;;;;24.07;45.12;100631.09;5012596;28;20022;-57
2022/10/24 09:59:43;;;;;;;7.93;2.15;;;;;;;24.12;45.04;100638.97;4995419;28;20105;-55
2022/10/24 10:02:17;;;;;;;7.82;2.05;;;;;;;24.11;45.05;100637.22;5012762;28;20467;-56
2022/10/24 10:04:47;;;;;;;7.63;2.08;;;;;;;24.11;44.84;100638.13;5016545;28;20067;-57
2022/10/24 10:07:19;;;;;;;9.07;2.50;;;;;;;24.10;44.87;100635.47;5015846;28;20390;-56
2022/10/24 10:09:51;;;;;;;7.03;2.03;;;;;;;24.11;45.12;100645.97;5016158;28;20030;-56
2022/10/24 10:12:40;;;;;;;9.43;2.20;;;;;;;24.06;44.70;100649.44;5016127;28;20029;-56
2022/10/24 10:15:39;;;;;;;7.75;2.13;;;;;;;24.08;45.27;100660.78;5016062;28;20030;-56
2022/10/24 10:18:26;;;;;;;11.15;3.17;;;;;;;24.11;45.18;100661.69;5010740;28;20037;-56
2022/10/24 10:21:14;;;;;;;7.47;2.08;;;;;;;24.11;45.09;100669.56;5015745;28;20048;-56
2022/10/24 10:23:46;;;;;;;7.38;2.25;;;;;;;24.13;45.23;100664.31;4982611;28;20026;-57
2022/10/24 10:26:36;;;;;;;9.95;2.40;;;;;;;24.10;45.40;100682.63;5015835;28;20033;-56
2022/10/24 10:29:09;;;;;;;8.95;2.90;;;;;;;24.16;45.33;100679.22;5009270;28;20037;-57
2022/10/24 10:31:50;;;;;;;9.10;2.63;;;;;;;24.12;45.17;100676.56;4998396;28;20113;-58
2022/10/24 10:34:38;;;;;;;8.75;2.67;;;;;;;24.14;45.11;100676.56;4998596;28;20483;-57
2022/10/24 10:37:27;;;;;;;6.45;2.20;;;;;;;24.18;45.15;100685.31;5015637;28;20057;-56
2022/10/24 10:39:59;;;;;;;10.13;2.70;;;;;;;24.24;44.93;100701.97;5015267;28;20064;-57
2022/10/24 10:42:42;;;;;;;8.02;2.38;;;;;;;24.20;44.99;100700.22;5015972;28;20021;-57
2022/10/24 10:45:33;;;;;;;12.70;2.40;;;;;;;24.23;45.25;100699.34;5016182;28;20025;-57
2022/10/24 10:48:08;;;;;;;11.82;2.42;;;;;;;24.23;45.04;100699.34;4998065;28;20030;-55
2022/10/24 10:50:37;;;;;;;;;;;;;;;24.32;44.86;100701.16;5015977;28;20079;-57
2022/10/24 10:53:22;;;;;;;5.20;1.73;;;;;;;24.33;44.89;100714.25;4981883;28;20014;-56
2022/10/24 10:56:14;;;;;;;12.02;2.50;;;;;;;24.29;45.02;100717.75;4998062;28;20026;-57
2022/10/24 10:58:53;;;;;;;6.97;2.20;;;;;;;24.27;45.02;100714.22;4997964;28;20029;-58
2022/10/24 11:01:40;;;;;;;7.70;2.25;;;;;;;24.22;45.40;100724.69;5015243;28;20034;-58
2022/10/24 11:04:22;;;;;;;7.15;2.03;;;;;;;24.25;44.92;100719.44;4997877;28;20111;-57
2022/10/24 11:06:55;;;;;;;6.13;1.92;;;;;;;24.29;45.27;100725.63;4997857;28;20109;-53
2022/10/24 11:09:45;;;;;;;8.38;1.88;;;;;;;24.25;45.44;100734.31;5015517;28;20022;-57
2022/10/24 11:12:34;;;;;;;7.90;2.28;;;;;;;24.22;45.29;100740.41;4990278;28;20042;-57
2022/10/24 11:15:24;;;;;;;8.20;1.85;;;;;;;24.30;45.45;100736.97;4988784;28;20368;-57
2022/10/24 11:18:00;;;;;;;7.55;1.75;;;;;;;24.32;45.14;100738.75;5007162;28;20087;-58
2022/10/24 11:20:34;;;;;;;8.60;2.10;;;;;;;24.36;45.19;100742.25;5014062;28;20034;-58
2022/10/24 11:23:19;;;;;;;8.83;2.20;;;;;;;24.27;45.03;100722.09;5014164;28;20037;-57
2022/10/24 11:26:02;;;;;;;6.40;2.35;;;;;;;24.35;45.38;100735.25;5014716;28;20743;-58
2022/10/24 11:28:40;;;;;;;9.68;2.40;;;;;;;24.37;45.35;100739.63;4997099;28;20040;-58
2022/10/24 11:31:13;;;;;;;8.30;2.35;;;;;;;24.38;45.15;100740.53;4997418;28;20030;-58
2022/10/24 11:33:48;;;;;;;10.45;2.58;;;;;;;24.36;45.24;100740.50;5014851;28;20033;-57
2022/10/24 11:36:35;;;;;;;8.40;2.67;;;;;;;24.38;45.19;100754.50;5014989;28;20467;-56
2022/10/24 11:39:14;;;;;;;8.02;2.17;;;;;;;24.36;45.13;100744.88;5003904;28;20038;-56
2022/10/24 11:41:52;;;;;;;10.13;2.65;;;;;;;24.42;45.05;100748.44;4997146;28;20096;-56
2022/10/24 11:44:58;;;;;;;8.52;2.03;;;;;;;24.40;45.45;100734.44;4997450;28;20101;-57
2022/10/24 11:47:27;;;;;;;8.52;2.10;;;;;;;24.48;44.97;100749.34;5008034;28;20046;-57
2022/10/24 11:50:11;;;;;;;10.05;2.13;;;;;;;24.46;45.05;100751.94;5014269;28;20080;-57